Accueil
METAR-TAF:

METAR-TAF

Aéroports :

Aéroport international Princess Juliana

Saint-Martin, Antilles néerlandaises

latitude: 18-03N, longitude: 063-07W, altitude: 4 m

Observation

Le bulletin a été fait il y a 1 heure et 12 minutes, à 11:00 UTC
Vent 8 kt de ouest
Température 28°C
Humidité 79%
Pression 1012 hPa
Visibilité 10 km ou plus
Nuages épars à une hauteur de 1600 ft
averses à proximité

METAR: TNCM 201100Z 26008KT 9999 VCSH SCT016 28/24 Q1012 NOSIG RMK VCSH SE

Heure: 08:12 (12:12 UTC)

Prévision

Le bulletin a été fait il y a 49 minutes, à 11:23 UTC
Prévision valable du 20 à 12 UTC au 21 à 12 UTC
Vent 10 kt de ouest
Visibilité: 10 km
Nuages épars à une hauteur de 1800 ft
averses à proximité

TAF: TNCM 201123Z 2012/2112 28010KT P6SM VCSH SCT018

Observations et prévisions météorologiques de plus de 4000 aéroports (messages METAR et TAF).

Les stations disponibles sont représentées par des disques jaunes et rouges sur la carte.

Passer la souris dessus pour voir le nom de la station.

Cliquer dessus pour voir les observations et prévisions météorologiques.

Pour changer de carte: cliquez sur les boutons verts avec une croix noire pour zoomer, sur le bouton vert avec un tiret pour effectuer un zoom arrière, ou sur les flèches vertes pour les cartes adjacentes.


METAR-TAF: